sensor_id;sensor_type;location;lat;lon;timestamp;pressure;altitude;pressure_sealevel;temperature;humidity
17311;BME280;8773;43.300;0.394;2022-09-23T00:01:21;99624.38;;;14.82;100.00
17311;BME280;8773;43.300;0.394;2022-09-23T00:03:49;99621.97;;;14.93;100.00
17311;BME280;8773;43.300;0.394;2022-09-23T00:06:20;99631.56;;;14.91;100.00
17311;BME280;8773;43.300;0.394;2022-09-23T00:08:49;99631.63;;;14.94;100.00
17311;BME280;8773;43.300;0.394;2022-09-23T00:11:19;99636.09;;;14.98;100.00
17311;BME280;8773;43.300;0.394;2022-09-23T00:13:48;99636.88;;;14.94;100.00
17311;BME280;8773;43.300;0.394;2022-09-23T00:16:19;99629.53;;;14.79;100.00
17311;BME280;8773;43.300;0.394;2022-09-23T00:18:48;99620.56;;;14.68;100.00
17311;BME280;8773;43.300;0.394;2022-09-23T00:21:17;99632.81;;;14.69;100.00
17311;BME280;8773;43.300;0.394;2022-09-23T00:23:47;99629.47;;;14.75;100.00
17311;BME280;8773;43.300;0.394;2022-09-23T00:26:17;99632.16;;;14.79;100.00
17311;BME280;8773;43.300;0.394;2022-09-23T00:28:46;99639.16;;;14.79;100.00
17311;BME280;8773;43.300;0.394;2022-09-23T00:31:17;99642.44;;;14.69;100.00
17311;BME280;8773;43.300;0.394;2022-09-23T00:33:45;99634.72;;;14.75;100.00
17311;BME280;8773;43.300;0.394;2022-09-23T00:36:14;99629.81;;;14.52;100.00
17311;BME280;8773;43.300;0.394;2022-09-23T00:38:43;99635.91;;;14.51;100.00
17311;BME280;8773;43.300;0.394;2022-09-23T00:41:13;99625.63;;;14.60;100.00
17311;BME280;8773;43.300;0.394;2022-09-23T00:43:43;99623.97;;;14.64;100.00
17311;BME280;8773;43.300;0.394;2022-09-23T00:46:16;99619.56;;;14.63;100.00
17311;BME280;8773;43.300;0.394;2022-09-23T00:48:46;99612.19;;;14.45;100.00
17311;BME280;8773;43.300;0.394;2022-09-23T00:51:18;99612.31;;;14.51;100.00
17311;BME280;8773;43.300;0.394;2022-09-23T00:53:49;99614.97;;;14.54;100.00
17311;BME280;8773;43.300;0.394;2022-09-23T00:56:21;99602.56;;;14.46;100.00
17311;BME280;8773;43.300;0.394;2022-09-23T00:58:50;99611.47;;;14.54;100.00
17311;BME280;8773;43.300;0.394;2022-09-23T01:01:19;99603.66;;;14.55;100.00
17311;BME280;8773;43.300;0.394;2022-09-23T01:03:48;99606.88;;;14.43;100.00
17311;BME280;8773;43.300;0.394;2022-09-23T01:06:16;99606.69;;;14.36;100.00
17311;BME280;8773;43.300;0.394;2022-09-23T01:08:45;99604.66;;;14.24;100.00
17311;BME280;8773;43.300;0.394;2022-09-23T01:11:26;99610.94;;;13.96;100.00
17311;BME280;8773;43.300;0.394;2022-09-23T01:14:07;99614.69;;;14.06;100.00
17311;BME280;8773;43.300;0.394;2022-09-23T01:16:45;99601.03;;;13.84;100.00
17311;BME280;8773;43.300;0.394;2022-09-23T01:19:33;99599.28;;;13.85;100.00
17311;BME280;8773;43.300;0.394;2022-09-23T01:22:08;99605.41;;;13.84;100.00
17311;BME280;8773;43.300;0.394;2022-09-23T01:24:47;99608.44;;;13.66;100.00
17311;BME280;8773;43.300;0.394;2022-09-23T01:27:40;99615.03;;;13.51;100.00
17311;BME280;8773;43.300;0.394;2022-09-23T01:30:40;99608.75;;;13.45;100.00
17311;BME280;8773;43.300;0.394;2022-09-23T01:33:12;99611.00;;;13.63;100.00
17311;BME280;8773;43.300;0.394;2022-09-23T01:35:52;99606.66;;;13.65;100.00
17311;BME280;8773;43.300;0.394;2022-09-23T01:38:32;99600.78;;;13.73;100.00
17311;BME280;8773;43.300;0.394;2022-09-23T01:41:09;99600.84;;;13.76;100.00
17311;BME280;8773;43.300;0.394;2022-09-23T01:43:45;99596.34;;;13.71;100.00
17311;BME280;8773;43.300;0.394;2022-09-23T01:46:23;99591.16;;;13.74;100.00
17311;BME280;8773;43.300;0.394;2022-09-23T01:48:56;99590.69;;;13.55;100.00
17311;BME280;8773;43.300;0.394;2022-09-23T01:51:30;99585.00;;;13.39;100.00
17311;BME280;8773;43.300;0.394;2022-09-23T01:54:04;99585.16;;;13.45;100.00
17311;BME280;8773;43.300;0.394;2022-09-23T01:56:38;99580.53;;;13.34;100.00
17311;BME280;8773;43.300;0.394;2022-09-23T01:59:10;99580.78;;;13.44;100.00
17311;BME280;8773;43.300;0.394;2022-09-23T02:01:46;99583.34;;;13.42;100.00
17311;BME280;8773;43.300;0.394;2022-09-23T02:04:20;99590.91;;;13.31;100.00
17311;BME280;8773;43.300;0.394;2022-09-23T02:06:51;99583.94;;;13.32;100.00
17311;BME280;8773;43.300;0.394;2022-09-23T02:09:27;99581.50;;;13.38;100.00
17311;BME280;8773;43.300;0.394;2022-09-23T02:12:01;99585.34;;;13.19;100.00
17311;BME280;8773;43.300;0.394;2022-09-23T02:14:35;99583.59;;;13.18;100.00
17311;BME280;8773;43.300;0.394;2022-09-23T02:17:08;99582.00;;;13.25;100.00
17311;BME280;8773;43.300;0.394;2022-09-23T02:19:42;99585.41;;;12.92;100.00
17311;BME280;8773;43.300;0.394;2022-09-23T02:22:16;99581.53;;;12.78;100.00
17311;BME280;8773;43.300;0.394;2022-09-23T02:24:46;99581.81;;;12.58;100.00
17311;BME280;8773;43.300;0.394;2022-09-23T02:27:20;99578.63;;;12.68;100.00
17311;BME280;8773;43.300;0.394;2022-09-23T02:29:55;99577.34;;;12.54;100.00
17311;BME280;8773;43.300;0.394;2022-09-23T02:32:30;99578.56;;;12.65;100.00
17311;BME280;8773;43.300;0.394;2022-09-23T02:35:07;99579.97;;;12.84;100.00
17311;BME280;8773;43.300;0.394;2022-09-23T02:37:43;99578.50;;;12.94;100.00
17311;BME280;8773;43.300;0.394;2022-09-23T02:40:19;99586.13;;;13.15;100.00
17311;BME280;8773;43.300;0.394;2022-09-23T02:42:55;99584.38;;;13.16;100.00
17311;BME280;8773;43.300;0.394;2022-09-23T02:45:26;99582.59;;;13.14;100.00
17311;BME280;8773;43.300;0.394;2022-09-23T02:47:59;99583.53;;;13.17;100.00
17311;BME280;8773;43.300;0.394;2022-09-23T02:50:30;99585.34;;;13.19;100.00
17311;BME280;8773;43.300;0.394;2022-09-23T02:52:59;99581.78;;;13.16;100.00
17311;BME280;8773;43.300;0.394;2022-09-23T02:55:28;99580.59;;;13.07;100.00
17311;BME280;8773;43.300;0.394;2022-09-23T02:57:59;99577.03;;;13.04;100.00
17311;BME280;8773;43.300;0.394;2022-09-23T03:00:41;99579.06;;;13.12;100.00
17311;BME280;8773;43.300;0.394;2022-09-23T03:03:25;99575.44;;;13.09;100.00
17311;BME280;8773;43.300;0.394;2022-09-23T03:05:57;99568.53;;;13.11;100.00
17311;BME280;8773;43.300;0.394;2022-09-23T03:08:35;99568.66;;;12.85;100.00
17311;BME280;8773;43.300;0.394;2022-09-23T03:11:10;99562.28;;;12.76;100.00
17311;BME280;8773;43.300;0.394;2022-09-23T03:13:51;99574.59;;;12.80;100.00
17311;BME280;8773;43.300;0.394;2022-09-23T03:16:28;99567.00;;;12.89;100.00
17311;BME280;8773;43.300;0.394;2022-09-23T03:19:06;99559.22;;;12.90;100.00
17311;BME280;8773;43.300;0.394;2022-09-23T03:21:42;99560.44;;;13.03;100.00
17311;BME280;8773;43.300;0.394;2022-09-23T03:24:13;99569.41;;;13.11;100.00
17311;BME280;8773;43.300;0.394;2022-09-23T03:26:44;99563.25;;;13.09;100.00
17311;BME280;8773;43.300;0.394;2022-09-23T03:29:13;99564.91;;;12.77;100.00
17311;BME280;8773;43.300;0.394;2022-09-23T03:31:43;99558.63;;;12.70;100.00
17311;BME280;8773;43.300;0.394;2022-09-23T03:34:15;99551.84;;;12.77;100.00
17311;BME280;8773;43.300;0.394;2022-09-23T03:36:48;99550.22;;;12.81;100.00
17311;BME280;8773;43.300;0.394;2022-09-23T03:39:32;99545.09;;;12.55;100.00
17311;BME280;8773;43.300;0.394;2022-09-23T03:42:04;99547.59;;;12.52;100.00
17311;BME280;8773;43.300;0.394;2022-09-23T03:44:35;99539.16;;;12.61;100.00
17311;BME280;8773;43.300;0.394;2022-09-23T03:47:05;99548.97;;;12.68;100.00
17311;BME280;8773;43.300;0.394;2022-09-23T03:49:36;99546.00;;;12.57;100.00
17311;BME280;8773;43.300;0.394;2022-09-23T03:52:05;99543.72;;;12.38;100.00
17311;BME280;8773;43.300;0.394;2022-09-23T03:54:33;99537.72;;;12.13;100.00
17311;BME280;8773;43.300;0.394;2022-09-23T03:57:02;99533.13;;;12.35;100.00
17311;BME280;8773;43.300;0.394;2022-09-23T03:59:30;99539.09;;;12.58;100.00
17311;BME280;8773;43.300;0.394;2022-09-23T04:01:58;99540.69;;;12.54;100.00
17311;BME280;8773;43.300;0.394;2022-09-23T04:04:27;99540.53;;;12.48;100.00
17311;BME280;8773;43.300;0.394;2022-09-23T04:06:59;99541.03;;;12.36;100.00
17311;BME280;8773;43.300;0.394;2022-09-23T04:09:27;99534.31;;;12.44;100.00
17311;BME280;8773;43.300;0.394;2022-09-23T04:11:55;99534.78;;;12.31;100.00
17311;BME280;8773;43.300;0.394;2022-09-23T04:14:23;99532.47;;;12.40;100.00
17311;BME280;8773;43.300;0.394;2022-09-23T04:16:51;99529.03;;;12.43;100.00
17311;BME280;8773;43.300;0.394;2022-09-23T04:19:19;99516.78;;;12.40;100.00
17311;BME280;8773;43.300;0.394;2022-09-23T04:21:47;99523.41;;;12.59;100.00
17311;BME280;8773;43.300;0.394;2022-09-23T04:24:16;99527.47;;;12.48;100.00
17311;BME280;8773;43.300;0.394;2022-09-23T04:26:44;99532.63;;;12.46;100.00
17311;BME280;8773;43.300;0.394;2022-09-23T04:29:12;99530.31;;;12.57;100.00
17311;BME280;8773;43.300;0.394;2022-09-23T04:31:40;99532.91;;;12.56;100.00
17311;BME280;8773;43.300;0.394;2022-09-23T04:34:08;99537.25;;;12.55;100.00
17311;BME280;8773;43.300;0.394;2022-09-23T04:36:37;99532.50;;;12.42;100.00
17311;BME280;8773;43.300;0.394;2022-09-23T04:39:05;99529.50;;;12.29;100.00
17311;BME280;8773;43.300;0.394;2022-09-23T04:41:34;99523.31;;;12.26;100.00
17311;BME280;8773;43.300;0.394;2022-09-23T04:44:03;99529.41;;;12.26;100.00
17311;BME280;8773;43.300;0.394;2022-09-23T04:46:31;99518.31;;;12.34;100.00
17311;BME280;8773;43.300;0.394;2022-09-23T04:49:01;99512.88;;;12.27;100.00
17311;BME280;8773;43.300;0.394;2022-09-23T04:51:29;99513.56;;;12.20;100.00
17311;BME280;8773;43.300;0.394;2022-09-23T04:54:00;99506.09;;;12.33;100.00
17311;BME280;8773;43.300;0.394;2022-09-23T04:56:29;99509.03;;;12.45;100.00
17311;BME280;8773;43.300;0.394;2022-09-23T04:59:00;99511.09;;;12.55;100.00
17311;BME280;8773;43.300;0.394;2022-09-23T05:01:30;99509.22;;;12.51;100.00
17311;BME280;8773;43.300;0.394;2022-09-23T05:04:02;99508.50;;;12.57;100.00
17311;BME280;8773;43.300;0.394;2022-09-23T05:06:31;99505.38;;;12.70;100.00
17311;BME280;8773;43.300;0.394;2022-09-23T05:09:01;99508.34;;;12.81;100.00
17311;BME280;8773;43.300;0.394;2022-09-23T05:11:29;99513.50;;;12.78;100.00
17311;BME280;8773;43.300;0.394;2022-09-23T05:13:57;99515.38;;;12.83;100.00
17311;BME280;8773;43.300;0.394;2022-09-23T05:16:27;99510.16;;;12.85;100.00
17311;BME280;8773;43.300;0.394;2022-09-23T05:18:55;99510.69;;;12.71;100.00
17311;BME280;8773;43.300;0.394;2022-09-23T05:21:24;99507.19;;;12.71;100.00
17311;BME280;8773;43.300;0.394;2022-09-23T05:23:55;99506.03;;;12.61;100.00
17311;BME280;8773;43.300;0.394;2022-09-23T05:26:27;99505.22;;;12.64;100.00
17311;BME280;8773;43.300;0.394;2022-09-23T05:28:56;99497.38;;;12.64;100.00
17311;BME280;8773;43.300;0.394;2022-09-23T05:31:27;99504.94;;;12.55;100.00
17311;BME280;8773;43.300;0.394;2022-09-23T05:33:57;99505.13;;;12.31;100.00
17311;BME280;8773;43.300;0.394;2022-09-23T05:36:25;99507.19;;;12.12;100.00
17311;BME280;8773;43.300;0.394;2022-09-23T05:38:54;99498.09;;;12.28;100.00
17311;BME280;8773;43.300;0.394;2022-09-23T05:41:24;99501.88;;;12.38;100.00
17311;BME280;8773;43.300;0.394;2022-09-23T05:43:54;99499.41;;;12.44;100.00
17311;BME280;8773;43.300;0.394;2022-09-23T05:46:24;99499.72;;;12.55;100.00
17311;BME280;8773;43.300;0.394;2022-09-23T05:48:55;99504.34;;;12.63;100.00
17311;BME280;8773;43.300;0.394;2022-09-23T05:51:28;99502.81;;;12.71;100.00
17311;BME280;8773;43.300;0.394;2022-09-23T05:53:58;99503.00;;;12.78;100.00
17311;BME280;8773;43.300;0.394;2022-09-23T05:56:29;99513.50;;;12.78;100.00
17311;BME280;8773;43.300;0.394;2022-09-23T05:58:58;99509.28;;;12.84;100.00
17311;BME280;8773;43.300;0.394;2022-09-23T06:01:29;99501.16;;;12.74;100.00
17311;BME280;8773;43.300;0.394;2022-09-23T06:04:02;99502.31;;;12.85;100.00
17311;BME280;8773;43.300;0.394;2022-09-23T06:06:32;99508.16;;;13.06;100.00
17311;BME280;8773;43.300;0.394;2022-09-23T06:09:00;99516.16;;;13.11;100.00
17311;BME280;8773;43.300;0.394;2022-09-23T06:11:29;99518.25;;;13.23;100.00
17311;BME280;8773;43.300;0.394;2022-09-23T06:13:58;99520.75;;;13.20;100.00
17311;BME280;8773;43.300;0.394;2022-09-23T06:16:29;99514.75;;;13.24;100.00
17311;BME280;8773;43.300;0.394;2022-09-23T06:18:58;99513.25;;;13.00;100.00
17311;BME280;8773;43.300;0.394;2022-09-23T06:21:34;99513.06;;;13.26;100.00
17311;BME280;8773;43.300;0.394;2022-09-23T06:24:04;99511.16;;;13.53;100.00
17311;BME280;8773;43.300;0.394;2022-09-23T06:26:33;99510.84;;;13.76;100.00
17311;BME280;8773;43.300;0.394;2022-09-23T06:29:01;99517.59;;;14.04;100.00
17311;BME280;8773;43.300;0.394;2022-09-23T06:31:30;99515.16;;;14.12;100.00
17311;BME280;8773;43.300;0.394;2022-09-23T06:33:58;99516.44;;;13.91;100.00
17311;BME280;8773;43.300;0.394;2022-09-23T06:36:40;99524.81;;;14.13;100.00
17311;BME280;8773;43.300;0.394;2022-09-23T06:39:11;99535.78;;;13.96;100.00
17311;BME280;8773;43.300;0.394;2022-09-23T06:41:39;99541.47;;;14.15;100.00
17311;BME280;8773;43.300;0.394;2022-09-23T06:44:07;99537.28;;;14.21;100.00
17311;BME280;8773;43.300;0.394;2022-09-23T06:46:35;99530.84;;;14.09;100.00
17311;BME280;8773;43.300;0.394;2022-09-23T06:49:03;99543.63;;;14.31;100.00
17311;BME280;8773;43.300;0.394;2022-09-23T06:51:31;99538.00;;;14.54;100.00
17311;BME280;8773;43.300;0.394;2022-09-23T06:54:01;99540.94;;;14.69;100.00
17311;BME280;8773;43.300;0.394;2022-09-23T06:56:29;99543.81;;;14.81;100.00
17311;BME280;8773;43.300;0.394;2022-09-23T06:59:04;99546.84;;;15.00;100.00
17311;BME280;8773;43.300;0.394;2022-09-23T07:01:33;99550.19;;;14.94;100.00
17311;BME280;8773;43.300;0.394;2022-09-23T07:04:01;99550.38;;;15.03;100.00
17311;BME280;8773;43.300;0.394;2022-09-23T07:06:29;99546.53;;;14.86;100.00
17311;BME280;8773;43.300;0.394;2022-09-23T07:08:57;99555.69;;;15.05;100.00
17311;BME280;8773;43.300;0.394;2022-09-23T07:11:28;99556.75;;;15.16;100.00
17311;BME280;8773;43.300;0.394;2022-09-23T07:13:56;99561.19;;;15.19;100.00
17311;BME280;8773;43.300;0.394;2022-09-23T07:16:24;99561.94;;;15.57;100.00
17311;BME280;8773;43.300;0.394;2022-09-23T07:18:52;99555.53;;;15.93;100.00
17311;BME280;8773;43.300;0.394;2022-09-23T07:21:20;99564.81;;;16.23;100.00
17311;BME280;8773;43.300;0.394;2022-09-23T07:23:48;99551.03;;;15.86;100.00
17311;BME280;8773;43.300;0.394;2022-09-23T07:26:18;99552.13;;;16.00;100.00
17311;BME280;8773;43.300;0.394;2022-09-23T07:28:52;99555.91;;;15.64;100.00
17311;BME280;8773;43.300;0.394;2022-09-23T07:31:21;99556.97;;;15.72;100.00
17311;BME280;8773;43.300;0.394;2022-09-23T07:34:04;99562.78;;;15.56;100.00
17311;BME280;8773;43.300;0.394;2022-09-23T07:36:32;99556.69;;;15.59;100.00
17311;BME280;8773;43.300;0.394;2022-09-23T07:39:03;99556.84;;;15.66;100.00
17311;BME280;8773;43.300;0.394;2022-09-23T07:41:32;99551.47;;;15.60;100.00
17311;BME280;8773;43.300;0.394;2022-09-23T07:44:03;99560.66;;;15.85;100.00
17311;BME280;8773;43.300;0.394;2022-09-23T07:46:33;99546.69;;;15.88;100.00
17311;BME280;8773;43.300;0.394;2022-09-23T07:49:03;99557.75;;;16.22;100.00
17311;BME280;8773;43.300;0.394;2022-09-23T07:51:33;99554.84;;;16.05;100.00
17311;BME280;8773;43.300;0.394;2022-09-23T07:54:03;99561.28;;;16.24;100.00
17311;BME280;8773;43.300;0.394;2022-09-23T07:56:34;99560.16;;;16.09;100.00
17311;BME280;8773;43.300;0.394;2022-09-23T07:59:04;99558.31;;;16.02;100.00
17311;BME280;8773;43.300;0.394;2022-09-23T08:01:37;99559.88;;;15.91;100.00
17311;BME280;8773;43.300;0.394;2022-09-23T08:04:07;99563.44;;;15.94;100.00
17311;BME280;8773;43.300;0.394;2022-09-23T08:06:39;99564.06;;;16.34;100.00
17311;BME280;8773;43.300;0.394;2022-09-23T08:09:07;99573.47;;;16.78;100.00
17311;BME280;8773;43.300;0.394;2022-09-23T08:11:36;99570.56;;;17.27;100.00
17311;BME280;8773;43.300;0.394;2022-09-23T08:14:06;99568.44;;;17.77;100.00
17311;BME280;8773;43.300;0.394;2022-09-23T08:16:34;99573.31;;;17.37;100.00
17311;BME280;8773;43.300;0.394;2022-09-23T08:19:02;99583.91;;;17.42;100.00
17311;BME280;8773;43.300;0.394;2022-09-23T08:21:35;99584.38;;;17.93;100.00
17311;BME280;8773;43.300;0.394;2022-09-23T08:24:05;99587.16;;;18.02;100.00
17311;BME280;8773;43.300;0.394;2022-09-23T08:26:33;99579.88;;;17.81;100.00
17311;BME280;8773;43.300;0.394;2022-09-23T08:29:02;99571.69;;;17.52;100.00
17311;BME280;8773;43.300;0.394;2022-09-23T08:31:31;99581.00;;;18.04;100.00
17311;BME280;8773;43.300;0.394;2022-09-23T08:33:59;99571.25;;;17.96;100.00
17311;BME280;8773;43.300;0.394;2022-09-23T08:36:28;99568.22;;;18.70;100.00
17311;BME280;8773;43.300;0.394;2022-09-23T08:38:55;99561.44;;;19.32;100.00
17311;BME280;8773;43.300;0.394;2022-09-23T08:41:30;99569.47;;;19.77;100.00
17311;BME280;8773;43.300;0.394;2022-09-23T08:44:04;99568.56;;;19.89;100.00
17311;BME280;8773;43.300;0.394;2022-09-23T08:46:41;99573.88;;;20.02;100.00
17311;BME280;8773;43.300;0.394;2022-09-23T08:49:18;99583.56;;;20.25;100.00
17311;BME280;8773;43.300;0.394;2022-09-23T08:51:51;99587.97;;;20.28;100.00
17311;BME280;8773;43.300;0.394;2022-09-23T08:54:21;99574.72;;;20.35;100.00
17311;BME280;8773;43.300;0.394;2022-09-23T08:56:54;99567.69;;;20.16;100.00
17311;BME280;8773;43.300;0.394;2022-09-23T08:59:27;99572.97;;;20.47;100.00
17311;BME280;8773;43.300;0.394;2022-09-23T09:02:11;99566.78;;;20.57;100.00
17311;BME280;8773;43.300;0.394;2022-09-23T09:04:42;99564.09;;;20.58;100.00
17311;BME280;8773;43.300;0.394;2022-09-23T09:07:14;99559.66;;;20.68;100.00
17311;BME280;8773;43.300;0.394;2022-09-23T09:10:10;99552.59;;;20.65;100.00
17311;BME280;8773;43.300;0.394;2022-09-23T09:12:43;99560.53;;;20.75;100.00
17311;BME280;8773;43.300;0.394;2022-09-23T09:15:15;99572.91;;;20.74;100.00
17311;BME280;8773;43.300;0.394;2022-09-23T09:17:55;99577.28;;;20.84;100.00
17311;BME280;8773;43.300;0.394;2022-09-23T09:20:33;99576.31;;;21.01;100.00
17311;BME280;8773;43.300;0.394;2022-09-23T09:23:14;99566.53;;;21.20;100.00
17311;BME280;8773;43.300;0.394;2022-09-23T09:25:48;99569.00;;;21.50;100.00
17311;BME280;8773;43.300;0.394;2022-09-23T09:28:21;99567.03;;;21.79;100.00
17311;BME280;8773;43.300;0.394;2022-09-23T09:30:53;99567.78;;;22.04;100.00
17311;BME280;8773;43.300;0.394;2022-09-23T09:33:27;99558.94;;;22.02;94.24
17311;BME280;8773;43.300;0.394;2022-09-23T09:36:06;99557.94;;;22.12;94.00
17311;BME280;8773;43.300;0.394;2022-09-23T09:38:36;99564.13;;;22.11;92.73
17311;BME280;8773;43.300;0.394;2022-09-23T09:41:12;99557.69;;;22.38;93.11
17311;BME280;8773;43.300;0.394;2022-09-23T09:43:43;99556.59;;;22.61;93.73
17311;BME280;8773;43.300;0.394;2022-09-23T09:46:25;99560.06;;;22.67;91.66
17311;BME280;8773;43.300;0.394;2022-09-23T09:49:02;99567.16;;;22.67;90.17
17311;BME280;8773;43.300;0.394;2022-09-23T09:51:36;99561.88;;;22.64;89.52
17311;BME280;8773;43.300;0.394;2022-09-23T09:54:15;99561.50;;;22.09;88.96
17311;BME280;8773;43.300;0.394;2022-09-23T09:56:45;99565.44;;;21.53;93.55
17311;BME280;8773;43.300;0.394;2022-09-23T09:59:17;99567.06;;;21.76;96.78
17311;BME280;8773;43.300;0.394;2022-09-23T10:01:49;99555.72;;;21.54;89.71
17311;BME280;8773;43.300;0.394;2022-09-23T10:04:38;99551.97;;;21.84;89.77
17311;BME280;8773;43.300;0.394;2022-09-23T10:07:11;99553.66;;;21.96;85.72
17311;BME280;8773;43.300;0.394;2022-09-23T10:09:46;99552.59;;;22.15;85.48
17311;BME280;8773;43.300;0.394;2022-09-23T10:12:16;99553.28;;;22.35;85.41
17311;BME280;8773;43.300;0.394;2022-09-23T10:14:46;99543.41;;;22.48;85.51
17311;BME280;8773;43.300;0.394;2022-09-23T10:17:19;99539.81;;;22.51;84.58
17311;BME280;8773;43.300;0.394;2022-09-23T10:19:53;99538.94;;;22.52;85.12
17311;BME280;8773;43.300;0.394;2022-09-23T10:22:31;99535.38;;;22.54;84.34
17311;BME280;8773;43.300;0.394;2022-09-23T10:25:02;99531.09;;;22.41;83.58
17311;BME280;8773;43.300;0.394;2022-09-23T10:27:34;99542.56;;;22.46;87.17
17311;BME280;8773;43.300;0.394;2022-09-23T10:30:10;99545.09;;;22.58;86.33
17311;BME280;8773;43.300;0.394;2022-09-23T10:32:48;99558.06;;;22.00;88.40
17311;BME280;8773;43.300;0.394;2022-09-23T10:35:19;99559.91;;;21.88;88.49
17311;BME280;8773;43.300;0.394;2022-09-23T10:37:49;99558.72;;;22.23;86.63
17311;BME280;8773;43.300;0.394;2022-09-23T10:40:24;99565.56;;;22.46;83.87
17311;BME280;8773;43.300;0.394;2022-09-23T10:43:26;99566.00;;;22.89;79.35
17311;BME280;8773;43.300;0.394;2022-09-23T10:46:17;99554.28;;;23.04;78.86
17311;BME280;8773;43.300;0.394;2022-09-23T10:49:15;99551.66;;;23.02;79.35
17311;BME280;8773;43.300;0.394;2022-09-23T10:51:56;99550.72;;;23.07;79.53
17311;BME280;8773;43.300;0.394;2022-09-23T10:54:39;99540.78;;;23.21;81.02
17311;BME280;8773;43.300;0.394;2022-09-23T10:57:22;99547.88;;;23.19;78.63
17311;BME280;8773;43.300;0.394;2022-09-23T11:00:17;99550.81;;;22.97;80.39
17311;BME280;8773;43.300;0.394;2022-09-23T11:03:22;99546.13;;;22.42;82.12
17311;BME280;8773;43.300;0.394;2022-09-23T11:05:59;99539.00;;;22.47;84.09
17311;BME280;8773;43.300;0.394;2022-09-23T11:09:01;99539.75;;;22.60;86.08
17311;BME280;8773;43.300;0.394;2022-09-23T11:11:39;99547.13;;;23.08;85.55
17311;BME280;8773;43.300;0.394;2022-09-23T11:14:31;99537.25;;;23.16;84.20
17311;BME280;8773;43.300;0.394;2022-09-23T11:17:21;99537.63;;;23.55;81.55
17311;BME280;8773;43.300;0.394;2022-09-23T11:20:26;99536.75;;;23.53;79.94
17311;BME280;8773;43.300;0.394;2022-09-23T11:23:14;99525.94;;;23.65;80.64
17311;BME280;8773;43.300;0.394;2022-09-23T11:25:52;99531.97;;;23.75;79.27
17311;BME280;8773;43.300;0.394;2022-09-23T11:29:01;99542.28;;;23.40;76.26
17311;BME280;8773;43.300;0.394;2022-09-23T11:31:37;99539.16;;;23.71;77.52
17311;BME280;8773;43.300;0.394;2022-09-23T11:34:20;99541.03;;;23.64;76.00
17311;BME280;8773;43.300;0.394;2022-09-23T11:36:55;99535.25;;;23.91;76.49
17311;BME280;8773;43.300;0.394;2022-09-23T11:39:27;99528.88;;;24.02;74.75
17311;BME280;8773;43.300;0.394;2022-09-23T11:41:59;99533.06;;;24.16;73.06
17311;BME280;8773;43.300;0.394;2022-09-23T11:44:31;99537.78;;;24.51;72.55
17311;BME280;8773;43.300;0.394;2022-09-23T11:47:05;99532.84;;;24.29;71.52
17311;BME280;8773;43.300;0.394;2022-09-23T11:49:38;99522.56;;;24.56;71.67
17311;BME280;8773;43.300;0.394;2022-09-23T11:52:09;99517.31;;;24.51;71.38
17311;BME280;8773;43.300;0.394;2022-09-23T11:54:42;99523.72;;;24.41;69.87
17311;BME280;8773;43.300;0.394;2022-09-23T11:57:24;99520.59;;;24.19;70.43
17311;BME280;8773;43.300;0.394;2022-09-23T12:00:13;99514.75;;;23.99;72.26
17311;BME280;8773;43.300;0.394;2022-09-23T12:02:53;99520.19;;;23.90;71.20
17311;BME280;8773;43.300;0.394;2022-09-23T12:05:34;99515.91;;;24.30;71.69
17311;BME280;8773;43.300;0.394;2022-09-23T12:08:12;99516.72;;;24.36;71.90
17311;BME280;8773;43.300;0.394;2022-09-23T12:10:49;99518.16;;;24.07;72.08
17311;BME280;8773;43.300;0.394;2022-09-23T12:13:25;99507.72;;;23.95;73.62
17311;BME280;8773;43.300;0.394;2022-09-23T12:19:04;99507.34;;;24.15;75.79
17311;BME280;8773;43.300;0.394;2022-09-23T12:21:48;99503.41;;;23.86;80.94
17311;BME280;8773;43.300;0.394;2022-09-23T12:24:33;99504.19;;;23.93;82.05
17311;BME280;8773;43.300;0.394;2022-09-23T12:27:07;99510.88;;;23.62;85.26
17311;BME280;8773;43.300;0.394;2022-09-23T12:29:39;99508.06;;;23.72;87.31
17311;BME280;8773;43.300;0.394;2022-09-23T12:32:15;99510.56;;;23.25;86.38
17311;BME280;8773;43.300;0.394;2022-09-23T12:34:47;99506.72;;;23.44;87.61
17311;BME280;8773;43.300;0.394;2022-09-23T12:37:26;99493.91;;;23.68;85.57
17311;BME280;8773;43.300;0.394;2022-09-23T12:39:59;99485.63;;;23.86;84.52
17311;BME280;8773;43.300;0.394;2022-09-23T12:42:28;99493.38;;;24.02;82.16
17311;BME280;8773;43.300;0.394;2022-09-23T12:45:17;99487.97;;;24.06;78.82
17311;BME280;8773;43.300;0.394;2022-09-23T12:47:45;99497.78;;;24.03;77.08
17311;BME280;8773;43.300;0.394;2022-09-23T12:50:45;99503.00;;;24.09;75.82
17311;BME280;8773;43.300;0.394;2022-09-23T12:53:57;99508.72;;;23.86;77.51
17311;BME280;8773;43.300;0.394;2022-09-23T12:56:27;99507.88;;;23.84;76.34
17311;BME280;8773;43.300;0.394;2022-09-23T12:59:20;99505.63;;;24.11;75.69
17311;BME280;8773;43.300;0.394;2022-09-23T13:01:52;99499.22;;;23.71;74.44
17311;BME280;8773;43.300;0.394;2022-09-23T13:04:33;99497.63;;;23.58;76.40
17311;BME280;8773;43.300;0.394;2022-09-23T13:07:24;99495.28;;;23.41;78.71
17311;BME280;8773;43.300;0.394;2022-09-23T13:09:58;99501.28;;;23.54;80.08
17311;BME280;8773;43.300;0.394;2022-09-23T13:12:30;99492.56;;;23.42;79.92
17311;BME280;8773;43.300;0.394;2022-09-23T13:15:02;99503.53;;;23.21;80.83
17311;BME280;8773;43.300;0.394;2022-09-23T13:17:36;99504.81;;;22.91;82.22
17311;BME280;8773;43.300;0.394;2022-09-23T13:20:28;99512.03;;;22.81;84.28
17311;BME280;8773;43.300;0.394;2022-09-23T13:25:48;99501.16;;;22.99;84.15
17311;BME280;8773;43.300;0.394;2022-09-23T13:28:28;99490.72;;;22.84;83.98
17311;BME280;8773;43.300;0.394;2022-09-23T13:30:56;99490.56;;;22.95;83.21
17311;BME280;8773;43.300;0.394;2022-09-23T13:33:33;99486.47;;;22.69;81.88
17311;BME280;8773;43.300;0.394;2022-09-23T13:36:10;99508.56;;;22.74;81.60
17311;BME280;8773;43.300;0.394;2022-09-23T13:38:39;99494.97;;;22.97;81.00
17311;BME280;8773;43.300;0.394;2022-09-23T13:41:11;99498.25;;;23.16;80.66
17311;BME280;8773;43.300;0.394;2022-09-23T13:43:43;99499.56;;;23.50;78.10